sensor_id;sensor_type;location;lat;lon;timestamp;P1;durP1;ratioP1;P2;durP2;ratioP2
3095;SDS011;1558;42.700;23.360;2023-02-24T00:01:47;9.83;;;8.83;;
3095;SDS011;1558;42.700;23.360;2023-02-24T00:04:18;9.57;;;8.37;;
3095;SDS011;1558;42.700;23.360;2023-02-24T00:06:48;10.83;;;9.63;;
3095;SDS011;1558;42.700;23.360;2023-02-24T00:09:16;11.30;;;9.07;;
3095;SDS011;1558;42.700;23.360;2023-02-24T00:11:46;10.57;;;8.30;;
3095;SDS011;1558;42.700;23.360;2023-02-24T00:14:19;11.67;;;8.53;;
3095;SDS011;1558;42.700;23.360;2023-02-24T00:16:47;11.63;;;10.13;;
3095;SDS011;1558;42.700;23.360;2023-02-24T00:19:15;10.40;;;8.83;;
3095;SDS011;1558;42.700;23.360;2023-02-24T00:21:45;11.77;;;9.83;;
3095;SDS011;1558;42.700;23.360;2023-02-24T00:24:14;10.20;;;9.20;;
3095;SDS011;1558;42.700;23.360;2023-02-24T00:26:42;11.00;;;9.00;;
3095;SDS011;1558;42.700;23.360;2023-02-24T00:29:13;10.00;;;8.97;;
3095;SDS011;1558;42.700;23.360;2023-02-24T00:31:41;10.77;;;9.17;;
3095;SDS011;1558;42.700;23.360;2023-02-24T00:34:09;8.80;;;7.83;;
3095;SDS011;1558;42.700;23.360;2023-02-24T00:36:40;10.17;;;9.17;;
3095;SDS011;1558;42.700;23.360;2023-02-24T00:39:08;9.47;;;8.47;;
3095;SDS011;1558;42.700;23.360;2023-02-24T00:41:37;9.60;;;8.67;;
3095;SDS011;1558;42.700;23.360;2023-02-24T00:44:07;9.83;;;8.83;;
3095;SDS011;1558;42.700;23.360;2023-02-24T00:46:38;9.00;;;8.07;;
3095;SDS011;1558;42.700;23.360;2023-02-24T00:49:09;9.10;;;8.07;;
3095;SDS011;1558;42.700;23.360;2023-02-24T00:51:43;10.20;;;8.93;;
3095;SDS011;1558;42.700;23.360;2023-02-24T00:54:12;10.20;;;9.20;;
3095;SDS011;1558;42.700;23.360;2023-02-24T00:56:43;9.13;;;8.20;;
3095;SDS011;1558;42.700;23.360;2023-02-24T00:59:13;10.70;;;8.90;;
3095;SDS011;1558;42.700;23.360;2023-02-24T01:01:42;11.63;;;9.93;;
3095;SDS011;1558;42.700;23.360;2023-02-24T01:04:11;9.10;;;8.20;;
3095;SDS011;1558;42.700;23.360;2023-02-24T01:06:41;9.87;;;8.97;;
3095;SDS011;1558;42.700;23.360;2023-02-24T01:09:12;8.97;;;8.07;;
3095;SDS011;1558;42.700;23.360;2023-02-24T01:11:43;10.30;;;9.13;;
3095;SDS011;1558;42.700;23.360;2023-02-24T01:14:48;10.50;;;9.50;;
3095;SDS011;1558;42.700;23.360;2023-02-24T01:17:19;10.23;;;9.23;;
3095;SDS011;1558;42.700;23.360;2023-02-24T01:19:47;10.33;;;9.23;;
3095;SDS011;1558;42.700;23.360;2023-02-24T01:22:16;10.37;;;8.83;;
3095;SDS011;1558;42.700;23.360;2023-02-24T01:24:46;11.23;;;9.33;;
3095;SDS011;1558;42.700;23.360;2023-02-24T01:27:16;9.10;;;8.20;;
3095;SDS011;1558;42.700;23.360;2023-02-24T01:29:45;9.27;;;8.17;;
3095;SDS011;1558;42.700;23.360;2023-02-24T01:32:13;9.10;;;8.20;;
3095;SDS011;1558;42.700;23.360;2023-02-24T01:34:44;8.30;;;7.50;;
3095;SDS011;1558;42.700;23.360;2023-02-24T01:37:12;9.93;;;8.90;;
3095;SDS011;1558;42.700;23.360;2023-02-24T01:39:42;9.03;;;8.20;;
3095;SDS011;1558;42.700;23.360;2023-02-24T01:42:11;9.23;;;8.10;;
3095;SDS011;1558;42.700;23.360;2023-02-24T01:47:42;9.60;;;8.50;;
3095;SDS011;1558;42.700;23.360;2023-02-24T01:50:13;8.47;;;7.50;;
3095;SDS011;1558;42.700;23.360;2023-02-24T01:52:44;9.27;;;7.97;;
3095;SDS011;1558;42.700;23.360;2023-02-24T01:55:13;9.07;;;8.23;;
3095;SDS011;1558;42.700;23.360;2023-02-24T01:57:46;9.57;;;8.57;;
3095;SDS011;1558;42.700;23.360;2023-02-24T02:00:18;8.77;;;7.87;;
3095;SDS011;1558;42.700;23.360;2023-02-24T02:03:12;9.63;;;7.90;;
3095;SDS011;1558;42.700;23.360;2023-02-24T02:05:45;9.20;;;8.30;;
3095;SDS011;1558;42.700;23.360;2023-02-24T02:08:14;8.77;;;7.87;;
3095;SDS011;1558;42.700;23.360;2023-02-24T02:10:44;9.33;;;8.10;;
3095;SDS011;1558;42.700;23.360;2023-02-24T02:13:13;8.50;;;7.60;;
3095;SDS011;1558;42.700;23.360;2023-02-24T02:15:51;8.70;;;7.77;;
3095;SDS011;1558;42.700;23.360;2023-02-24T02:18:28;10.30;;;8.27;;
3095;SDS011;1558;42.700;23.360;2023-02-24T02:21:14;7.50;;;6.80;;
3095;SDS011;1558;42.700;23.360;2023-02-24T02:23:56;7.73;;;6.93;;
3095;SDS011;1558;42.700;23.360;2023-02-24T02:26:49;9.93;;;7.70;;
3095;SDS011;1558;42.700;23.360;2023-02-24T02:29:49;8.30;;;7.40;;
3095;SDS011;1558;42.700;23.360;2023-02-24T02:32:51;8.30;;;7.50;;
3095;SDS011;1558;42.700;23.360;2023-02-24T02:35:42;7.87;;;7.07;;
3095;SDS011;1558;42.700;23.360;2023-02-24T02:38:21;11.13;;;8.13;;
3095;SDS011;1558;42.700;23.360;2023-02-24T02:40:58;10.10;;;8.27;;
3095;SDS011;1558;42.700;23.360;2023-02-24T02:43:33;7.90;;;7.10;;
3095;SDS011;1558;42.700;23.360;2023-02-24T02:46:09;8.50;;;7.60;;
3095;SDS011;1558;42.700;23.360;2023-02-24T02:48:45;8.87;;;7.63;;
3095;SDS011;1558;42.700;23.360;2023-02-24T02:51:17;9.43;;;7.93;;
3095;SDS011;1558;42.700;23.360;2023-02-24T02:53:53;8.50;;;7.60;;
3095;SDS011;1558;42.700;23.360;2023-02-24T02:56:26;8.83;;;7.53;;
3095;SDS011;1558;42.700;23.360;2023-02-24T02:58:58;9.37;;;7.40;;
3095;SDS011;1558;42.700;23.360;2023-02-24T03:01:29;8.40;;;7.60;;
3095;SDS011;1558;42.700;23.360;2023-02-24T03:04:01;8.83;;;7.93;;
3095;SDS011;1558;42.700;23.360;2023-02-24T03:06:32;8.60;;;7.70;;
3095;SDS011;1558;42.700;23.360;2023-02-24T03:09:03;8.97;;;7.60;;
3095;SDS011;1558;42.700;23.360;2023-02-24T03:11:37;9.10;;;7.77;;
3095;SDS011;1558;42.700;23.360;2023-02-24T03:14:07;8.07;;;7.27;;
3095;SDS011;1558;42.700;23.360;2023-02-24T03:16:39;8.60;;;7.70;;
3095;SDS011;1558;42.700;23.360;2023-02-24T03:19:12;9.90;;;8.07;;
3095;SDS011;1558;42.700;23.360;2023-02-24T03:21:48;8.37;;;7.20;;
3095;SDS011;1558;42.700;23.360;2023-02-24T03:24:22;9.20;;;8.30;;
3095;SDS011;1558;42.700;23.360;2023-02-24T03:26:54;9.50;;;8.27;;
3095;SDS011;1558;42.700;23.360;2023-02-24T03:29:33;10.70;;;8.60;;
3095;SDS011;1558;42.700;23.360;2023-02-24T03:32:07;9.00;;;7.87;;
3095;SDS011;1558;42.700;23.360;2023-02-24T03:34:42;9.23;;;8.33;;
3095;SDS011;1558;42.700;23.360;2023-02-24T03:37:17;9.53;;;8.00;;
3095;SDS011;1558;42.700;23.360;2023-02-24T03:39:51;7.47;;;6.53;;
3095;SDS011;1558;42.700;23.360;2023-02-24T03:42:19;8.37;;;7.13;;
3095;SDS011;1558;42.700;23.360;2023-02-24T03:44:49;7.23;;;6.53;;
3095;SDS011;1558;42.700;23.360;2023-02-24T03:47:17;7.13;;;6.33;;
3095;SDS011;1558;42.700;23.360;2023-02-24T03:49:46;7.43;;;6.40;;
3095;SDS011;1558;42.700;23.360;2023-02-24T03:52:19;6.83;;;6.13;;
3095;SDS011;1558;42.700;23.360;2023-02-24T03:54:58;6.93;;;6.33;;
3095;SDS011;1558;42.700;23.360;2023-02-24T03:57:47;7.43;;;6.73;;
3095;SDS011;1558;42.700;23.360;2023-02-24T04:00:27;7.33;;;6.63;;
3095;SDS011;1558;42.700;23.360;2023-02-24T04:03:05;7.60;;;6.73;;
3095;SDS011;1558;42.700;23.360;2023-02-24T04:05:41;7.03;;;6.33;;
3095;SDS011;1558;42.700;23.360;2023-02-24T04:08:15;6.20;;;5.70;;
3095;SDS011;1558;42.700;23.360;2023-02-24T04:10:47;6.63;;;6.03;;
3095;SDS011;1558;42.700;23.360;2023-02-24T04:13:20;7.23;;;6.53;;
3095;SDS011;1558;42.700;23.360;2023-02-24T04:15:58;7.07;;;6.17;;
3095;SDS011;1558;42.700;23.360;2023-02-24T04:18:30;7.73;;;6.50;;
3095;SDS011;1558;42.700;23.360;2023-02-24T04:20:59;7.43;;;6.70;;
3095;SDS011;1558;42.700;23.360;2023-02-24T04:23:32;6.90;;;6.20;;
3095;SDS011;1558;42.700;23.360;2023-02-24T04:26:06;8.33;;;6.97;;
3095;SDS011;1558;42.700;23.360;2023-02-24T04:28:38;7.63;;;6.90;;
3095;SDS011;1558;42.700;23.360;2023-02-24T04:31:08;8.03;;;7.27;;
3095;SDS011;1558;42.700;23.360;2023-02-24T04:33:43;7.90;;;7.17;;
3095;SDS011;1558;42.700;23.360;2023-02-24T04:36:16;7.17;;;6.43;;
3095;SDS011;1558;42.700;23.360;2023-02-24T04:38:47;8.23;;;7.37;;
3095;SDS011;1558;42.700;23.360;2023-02-24T04:41:15;6.97;;;6.37;;
3095;SDS011;1558;42.700;23.360;2023-02-24T04:43:47;6.50;;;5.90;;
3095;SDS011;1558;42.700;23.360;2023-02-24T04:46:16;7.73;;;6.03;;
3095;SDS011;1558;42.700;23.360;2023-02-24T04:48:44;6.73;;;6.03;;
3095;SDS011;1558;42.700;23.360;2023-02-24T04:51:12;6.67;;;6.00;;
3095;SDS011;1558;42.700;23.360;2023-02-24T04:53:40;7.90;;;6.40;;
3095;SDS011;1558;42.700;23.360;2023-02-24T04:56:09;7.67;;;6.13;;
3095;SDS011;1558;42.700;23.360;2023-02-24T04:58:37;6.90;;;6.20;;
3095;SDS011;1558;42.700;23.360;2023-02-24T05:01:07;7.10;;;5.80;;
3095;SDS011;1558;42.700;23.360;2023-02-24T05:03:37;6.87;;;6.17;;
3095;SDS011;1558;42.700;23.360;2023-02-24T05:06:11;6.50;;;5.70;;
3095;SDS011;1558;42.700;23.360;2023-02-24T05:08:41;6.97;;;5.87;;
3095;SDS011;1558;42.700;23.360;2023-02-24T05:11:13;6.03;;;5.13;;
3095;SDS011;1558;42.700;23.360;2023-02-24T05:13:42;7.20;;;5.80;;
3095;SDS011;1558;42.700;23.360;2023-02-24T05:16:13;8.17;;;6.53;;
3095;SDS011;1558;42.700;23.360;2023-02-24T05:18:45;7.33;;;5.80;;
3095;SDS011;1558;42.700;23.360;2023-02-24T05:21:14;6.77;;;5.73;;
3095;SDS011;1558;42.700;23.360;2023-02-24T05:24:06;7.27;;;5.93;;
3095;SDS011;1558;42.700;23.360;2023-02-24T05:26:38;8.13;;;6.50;;
3095;SDS011;1558;42.700;23.360;2023-02-24T05:29:07;7.40;;;6.17;;
3095;SDS011;1558;42.700;23.360;2023-02-24T05:31:38;6.10;;;5.50;;
3095;SDS011;1558;42.700;23.360;2023-02-24T05:34:06;7.43;;;5.63;;
3095;SDS011;1558;42.700;23.360;2023-02-24T05:36:36;7.53;;;6.13;;
3095;SDS011;1558;42.700;23.360;2023-02-24T05:39:06;7.73;;;5.97;;
3095;SDS011;1558;42.700;23.360;2023-02-24T05:41:39;8.27;;;6.43;;
3095;SDS011;1558;42.700;23.360;2023-02-24T05:44:11;8.17;;;6.43;;
3095;SDS011;1558;42.700;23.360;2023-02-24T05:46:42;8.27;;;6.67;;
3095;SDS011;1558;42.700;23.360;2023-02-24T05:49:11;7.73;;;6.50;;
3095;SDS011;1558;42.700;23.360;2023-02-24T05:51:42;8.97;;;6.37;;
3095;SDS011;1558;42.700;23.360;2023-02-24T05:54:20;9.37;;;6.73;;
3095;SDS011;1558;42.700;23.360;2023-02-24T05:56:52;8.80;;;7.30;;
3095;SDS011;1558;42.700;23.360;2023-02-24T05:59:22;8.77;;;6.80;;
3095;SDS011;1558;42.700;23.360;2023-02-24T06:01:50;8.03;;;5.70;;
3095;SDS011;1558;42.700;23.360;2023-02-24T06:04:19;7.50;;;5.90;;
3095;SDS011;1558;42.700;23.360;2023-02-24T06:06:53;7.57;;;5.63;;
3095;SDS011;1558;42.700;23.360;2023-02-24T06:09:21;7.20;;;5.97;;
3095;SDS011;1558;42.700;23.360;2023-02-24T06:11:49;6.00;;;5.40;;
3095;SDS011;1558;42.700;23.360;2023-02-24T06:14:18;8.13;;;6.30;;
3095;SDS011;1558;42.700;23.360;2023-02-24T06:16:47;7.23;;;6.10;;
3095;SDS011;1558;42.700;23.360;2023-02-24T06:19:16;7.23;;;6.20;;
3095;SDS011;1558;42.700;23.360;2023-02-24T06:21:45;7.20;;;6.07;;
3095;SDS011;1558;42.700;23.360;2023-02-24T06:24:14;8.20;;;7.07;;
3095;SDS011;1558;42.700;23.360;2023-02-24T06:26:43;10.07;;;6.37;;
3095;SDS011;1558;42.700;23.360;2023-02-24T06:29:12;6.97;;;6.23;;
3095;SDS011;1558;42.700;23.360;2023-02-24T06:31:42;7.73;;;6.43;;
3095;SDS011;1558;42.700;23.360;2023-02-24T06:34:14;10.57;;;6.53;;
3095;SDS011;1558;42.700;23.360;2023-02-24T06:36:43;8.90;;;6.40;;
3095;SDS011;1558;42.700;23.360;2023-02-24T06:39:12;7.20;;;6.17;;
3095;SDS011;1558;42.700;23.360;2023-02-24T06:41:40;7.50;;;6.70;;
3095;SDS011;1558;42.700;23.360;2023-02-24T06:44:08;8.17;;;6.77;;
3095;SDS011;1558;42.700;23.360;2023-02-24T06:46:36;8.20;;;6.30;;
3095;SDS011;1558;42.700;23.360;2023-02-24T06:49:06;6.97;;;6.20;;
3095;SDS011;1558;42.700;23.360;2023-02-24T06:51:35;6.70;;;6.00;;
3095;SDS011;1558;42.700;23.360;2023-02-24T06:54:03;6.93;;;5.93;;
3095;SDS011;1558;42.700;23.360;2023-02-24T06:56:31;8.37;;;6.10;;
3095;SDS011;1558;42.700;23.360;2023-02-24T06:59:03;8.30;;;6.17;;
3095;SDS011;1558;42.700;23.360;2023-02-24T07:01:37;7.13;;;6.43;;
3095;SDS011;1558;42.700;23.360;2023-02-24T07:04:12;9.20;;;7.17;;
3095;SDS011;1558;42.700;23.360;2023-02-24T07:06:54;9.30;;;7.30;;
3095;SDS011;1558;42.700;23.360;2023-02-24T07:09:28;8.13;;;6.43;;
3095;SDS011;1558;42.700;23.360;2023-02-24T07:12:15;8.33;;;6.60;;
3095;SDS011;1558;42.700;23.360;2023-02-24T07:14:47;7.77;;;6.40;;
3095;SDS011;1558;42.700;23.360;2023-02-24T07:17:16;8.20;;;6.13;;
3095;SDS011;1558;42.700;23.360;2023-02-24T07:19:46;7.77;;;6.30;;
3095;SDS011;1558;42.700;23.360;2023-02-24T07:22:14;7.90;;;6.17;;
3095;SDS011;1558;42.700;23.360;2023-02-24T07:24:42;9.87;;;6.70;;
3095;SDS011;1558;42.700;23.360;2023-02-24T07:27:12;7.67;;;6.20;;
3095;SDS011;1558;42.700;23.360;2023-02-24T07:29:48;9.00;;;6.80;;
3095;SDS011;1558;42.700;23.360;2023-02-24T07:32:19;9.30;;;7.10;;
3095;SDS011;1558;42.700;23.360;2023-02-24T07:34:49;9.40;;;6.57;;
3095;SDS011;1558;42.700;23.360;2023-02-24T07:37:18;11.10;;;6.97;;
3095;SDS011;1558;42.700;23.360;2023-02-24T07:39:48;8.27;;;6.80;;
3095;SDS011;1558;42.700;23.360;2023-02-24T07:42:16;10.03;;;7.60;;
3095;SDS011;1558;42.700;23.360;2023-02-24T07:44:44;10.00;;;6.77;;
3095;SDS011;1558;42.700;23.360;2023-02-24T07:47:14;8.97;;;5.97;;
3095;SDS011;1558;42.700;23.360;2023-02-24T07:49:42;11.93;;;8.17;;
3095;SDS011;1558;42.700;23.360;2023-02-24T07:52:12;10.30;;;7.17;;
3095;SDS011;1558;42.700;23.360;2023-02-24T07:54:41;10.00;;;7.07;;
3095;SDS011;1558;42.700;23.360;2023-02-24T07:57:09;9.93;;;7.17;;
3095;SDS011;1558;42.700;23.360;2023-02-24T07:59:39;10.20;;;6.90;;
3095;SDS011;1558;42.700;23.360;2023-02-24T08:02:10;10.60;;;6.93;;
3095;SDS011;1558;42.700;23.360;2023-02-24T08:04:39;11.00;;;7.90;;
3095;SDS011;1558;42.700;23.360;2023-02-24T08:07:14;10.00;;;6.87;;
3095;SDS011;1558;42.700;23.360;2023-02-24T08:09:45;12.33;;;7.23;;
3095;SDS011;1558;42.700;23.360;2023-02-24T08:12:30;12.30;;;8.07;;
3095;SDS011;1558;42.700;23.360;2023-02-24T08:15:00;11.00;;;7.90;;
3095;SDS011;1558;42.700;23.360;2023-02-24T08:17:42;10.53;;;8.10;;
3095;SDS011;1558;42.700;23.360;2023-02-24T08:20:12;11.97;;;8.03;;
3095;SDS011;1558;42.700;23.360;2023-02-24T08:22:52;11.30;;;7.83;;
3095;SDS011;1558;42.700;23.360;2023-02-24T08:25:21;11.73;;;7.90;;
3095;SDS011;1558;42.700;23.360;2023-02-24T08:27:51;10.90;;;7.97;;
3095;SDS011;1558;42.700;23.360;2023-02-24T08:30:37;10.50;;;7.97;;
3095;SDS011;1558;42.700;23.360;2023-02-24T08:33:21;10.17;;;7.77;;
3095;SDS011;1558;42.700;23.360;2023-02-24T08:35:57;11.77;;;8.47;;
3095;SDS011;1558;42.700;23.360;2023-02-24T08:39:03;11.63;;;7.73;;
3095;SDS011;1558;42.700;23.360;2023-02-24T08:41:50;11.43;;;7.20;;
3095;SDS011;1558;42.700;23.360;2023-02-24T08:44:27;10.53;;;8.03;;
3095;SDS011;1558;42.700;23.360;2023-02-24T08:47:05;18.83;;;9.33;;
3095;SDS011;1558;42.700;23.360;2023-02-24T08:49:50;17.97;;;9.30;;
3095;SDS011;1558;42.700;23.360;2023-02-24T08:52:23;12.97;;;8.53;;
3095;SDS011;1558;42.700;23.360;2023-02-24T08:55:12;13.10;;;7.80;;
3095;SDS011;1558;42.700;23.360;2023-02-24T08:57:45;11.60;;;8.07;;
3095;SDS011;1558;42.700;23.360;2023-02-24T09:00:27;11.30;;;7.70;;
3095;SDS011;1558;42.700;23.360;2023-02-24T09:03:16;12.60;;;9.17;;
3095;SDS011;1558;42.700;23.360;2023-02-24T09:06:02;13.10;;;8.60;;
3095;SDS011;1558;42.700;23.360;2023-02-24T09:08:39;15.23;;;10.13;;
3095;SDS011;1558;42.700;23.360;2023-02-24T09:14:31;12.60;;;8.10;;
3095;SDS011;1558;42.700;23.360;2023-02-24T09:17:16;12.90;;;8.93;;
3095;SDS011;1558;42.700;23.360;2023-02-24T09:19:57;16.50;;;8.97;;
3095;SDS011;1558;42.700;23.360;2023-02-24T09:22:59;12.77;;;8.50;;
3095;SDS011;1558;42.700;23.360;2023-02-24T09:25:30;14.27;;;9.00;;
3095;SDS011;1558;42.700;23.360;2023-02-24T09:28:16;11.47;;;8.30;;
3095;SDS011;1558;42.700;23.360;2023-02-24T09:30:46;12.57;;;9.20;;
3095;SDS011;1558;42.700;23.360;2023-02-24T09:33:21;12.50;;;8.47;;
3095;SDS011;1558;42.700;23.360;2023-02-24T09:35:52;11.90;;;8.97;;
3095;SDS011;1558;42.700;23.360;2023-02-24T09:38:29;9.57;;;7.67;;
3095;SDS011;1558;42.700;23.360;2023-02-24T09:41:35;10.43;;;8.00;;
3095;SDS011;1558;42.700;23.360;2023-02-24T09:44:27;11.57;;;8.57;;
3095;SDS011;1558;42.700;23.360;2023-02-24T09:47:02;10.10;;;8.53;;
3095;SDS011;1558;42.700;23.360;2023-02-24T09:49:42;13.87;;;9.47;;
3095;SDS011;1558;42.700;23.360;2023-02-24T09:52:16;17.13;;;9.27;;
3095;SDS011;1558;42.700;23.360;2023-02-24T09:54:45;10.83;;;8.80;;
3095;SDS011;1558;42.700;23.360;2023-02-24T09:57:29;10.53;;;9.00;;
3095;SDS011;1558;42.700;23.360;2023-02-24T10:00:05;12.13;;;9.07;;
3095;SDS011;1558;42.700;23.360;2023-02-24T10:02:51;10.20;;;8.43;;
3095;SDS011;1558;42.700;23.360;2023-02-24T10:05:26;10.20;;;8.60;;
3095;SDS011;1558;42.700;23.360;2023-02-24T10:08:04;12.23;;;9.83;;
3095;SDS011;1558;42.700;23.360;2023-02-24T10:10:43;10.77;;;9.23;;
3095;SDS011;1558;42.700;23.360;2023-02-24T10:13:35;17.60;;;10.63;;
3095;SDS011;1558;42.700;23.360;2023-02-24T10:16:10;12.03;;;8.83;;
3095;SDS011;1558;42.700;23.360;2023-02-24T10:18:44;10.67;;;8.73;;
3095;SDS011;1558;42.700;23.360;2023-02-24T10:21:27;11.03;;;8.77;;
3095;SDS011;1558;42.700;23.360;2023-02-24T10:24:15;11.50;;;9.87;;
3095;SDS011;1558;42.700;23.360;2023-02-24T10:26:50;15.93;;;9.73;;
3095;SDS011;1558;42.700;23.360;2023-02-24T10:29:47;10.03;;;8.97;;
3095;SDS011;1558;42.700;23.360;2023-02-24T10:32:29;14.33;;;10.27;;
3095;SDS011;1558;42.700;23.360;2023-02-24T10:35:02;14.33;;;10.80;;
3095;SDS011;1558;42.700;23.360;2023-02-24T10:37:31;10.17;;;9.10;;
3095;SDS011;1558;42.700;23.360;2023-02-24T10:40:00;16.90;;;9.47;;
3095;SDS011;1558;42.700;23.360;2023-02-24T10:42:36;13.10;;;9.80;;
3095;SDS011;1558;42.700;23.360;2023-02-24T10:45:12;12.13;;;10.00;;
3095;SDS011;1558;42.700;23.360;2023-02-24T10:47:50;12.73;;;10.83;;
3095;SDS011;1558;42.700;23.360;2023-02-24T10:50:24;20.97;;;10.73;;
3095;SDS011;1558;42.700;23.360;2023-02-24T10:53:00;11.73;;;10.17;;
3095;SDS011;1558;42.700;23.360;2023-02-24T10:55:52;11.53;;;10.33;;
3095;SDS011;1558;42.700;23.360;2023-02-24T10:58:41;12.60;;;11.30;;
3095;SDS011;1558;42.700;23.360;2023-02-24T11:01:23;11.75;;;10.45;;
3095;SDS011;1558;42.700;23.360;2023-02-24T11:04:11;13.55;;;11.32;;
3095;SDS011;1558;42.700;23.360;2023-02-24T11:07:01;11.55;;;10.35;;
3095;SDS011;1558;42.700;23.360;2023-02-24T11:09:35;11.90;;;10.70;;
3095;SDS011;1558;42.700;23.360;2023-02-24T11:12:13;12.32;;;10.27;;
3095;SDS011;1558;42.700;23.360;2023-02-24T11:15:02;11.60;;;10.40;;
3095;SDS011;1558;42.700;23.360;2023-02-24T11:17:52;11.65;;;10.40;;
3095;SDS011;1558;42.700;23.360;2023-02-24T11:20:27;11.90;;;10.70;;
3095;SDS011;1558;42.700;23.360;2023-02-24T11:23:14;11.98;;;10.38;;
3095;SDS011;1558;42.700;23.360;2023-02-24T11:25:46;25.50;;;11.68;;
3095;SDS011;1558;42.700;23.360;2023-02-24T11:28:17;17.02;;;12.48;;
3095;SDS011;1558;42.700;23.360;2023-02-24T11:31:02;14.18;;;12.70;;
3095;SDS011;1558;42.700;23.360;2023-02-24T11:33:42;11.52;;;10.52;;
3095;SDS011;1558;42.700;23.360;2023-02-24T11:36:20;12.10;;;10.40;;
3095;SDS011;1558;42.700;23.360;2023-02-24T11:38:58;11.30;;;10.20;;
3095;SDS011;1558;42.700;23.360;2023-02-24T11:41:47;16.02;;;12.57;;
3095;SDS011;1558;42.700;23.360;2023-02-24T11:44:21;13.20;;;11.43;;
3095;SDS011;1558;42.700;23.360;2023-02-24T11:46:54;12.00;;;10.80;;
3095;SDS011;1558;42.700;23.360;2023-02-24T11:49:28;14.27;;;11.48;;
3095;SDS011;1558;42.700;23.360;2023-02-24T11:52:05;13.55;;;11.98;;
3095;SDS011;1558;42.700;23.360;2023-02-24T11:54:41;12.32;;;11.02;;
3095;SDS011;1558;42.700;23.360;2023-02-24T11:57:15;11.93;;;10.82;;
3095;SDS011;1558;42.700;23.360;2023-02-24T11:59:50;12.77;;;11.15;;
3095;SDS011;1558;42.700;23.360;2023-02-24T12:02:26;11.10;;;10.07;;
3095;SDS011;1558;42.700;23.360;2023-02-24T12:05:08;15.70;;;11.35;;
3095;SDS011;1558;42.700;23.360;2023-02-24T12:07:41;11.98;;;10.88;;
3095;SDS011;1558;42.700;23.360;2023-02-24T12:12:44;13.47;;;10.47;;
3095;SDS011;1558;42.700;23.360;2023-02-24T12:15:21;12.07;;;10.87;;
3095;SDS011;1558;42.700;23.360;2023-02-24T12:17:57;11.90;;;10.80;;
3095;SDS011;1558;42.700;23.360;2023-02-24T12:20:32;12.57;;;10.50;;
3095;SDS011;1558;42.700;23.360;2023-02-24T12:23:15;13.50;;;10.83;;
3095;SDS011;1558;42.700;23.360;2023-02-24T12:25:54;12.30;;;11.00;;
3095;SDS011;1558;42.700;23.360;2023-02-24T12:28:38;13.73;;;11.40;;
3095;SDS011;1558;42.700;23.360;2023-02-24T12:31:23;13.53;;;11.20;;
3095;SDS011;1558;42.700;23.360;2023-02-24T12:34:02;13.00;;;10.73;;
3095;SDS011;1558;42.700;23.360;2023-02-24T12:39:54;13.33;;;11.90;;
3095;SDS011;1558;42.700;23.360;2023-02-24T12:42:32;15.57;;;11.10;;
3095;SDS011;1558;42.700;23.360;2023-02-24T12:45:14;12.23;;;11.03;;
3095;SDS011;1558;42.700;23.360;2023-02-24T12:47:51;13.00;;;11.57;;
3095;SDS011;1558;42.700;23.360;2023-02-24T12:50:28;12.43;;;10.63;;
3095;SDS011;1558;42.700;23.360;2023-02-24T12:53:03;11.80;;;10.57;;
3095;SDS011;1558;42.700;23.360;2023-02-24T12:55:44;12.77;;;11.33;;
3095;SDS011;1558;42.700;23.360;2023-02-24T12:58:21;13.23;;;11.83;;
3095;SDS011;1558;42.700;23.360;2023-02-24T13:00:56;13.67;;;12.07;;
3095;SDS011;1558;42.700;23.360;2023-02-24T13:03:44;15.83;;;13.90;;
3095;SDS011;1558;42.700;23.360;2023-02-24T13:06:22;15.87;;;14.07;;
3095;SDS011;1558;42.700;23.360;2023-02-24T13:09:04;16.00;;;14.30;;
3095;SDS011;1558;42.700;23.360;2023-02-24T13:11:43;19.97;;;16.60;;
3095;SDS011;1558;42.700;23.360;2023-02-24T13:14:19;26.77;;;20.70;;
3095;SDS011;1558;42.700;23.360;2023-02-24T13:17:01;23.87;;;16.70;;
3095;SDS011;1558;42.700;23.360;2023-02-24T13:19:31;43.30;;;19.10;;
3095;SDS011;1558;42.700;23.360;2023-02-24T13:22:04;20.27;;;16.47;;
3095;SDS011;1558;42.700;23.360;2023-02-24T13:24:34;23.23;;;15.37;;
3095;SDS011;1558;42.700;23.360;2023-02-24T13:27:06;24.23;;;15.90;;
3095;SDS011;1558;42.700;23.360;2023-02-24T13:29:48;23.10;;;16.67;;
3095;SDS011;1558;42.700;23.360;2023-02-24T13:32:25;17.67;;;13.93;;
3095;SDS011;1558;42.700;23.360;2023-02-24T13:34:57;18.60;;;14.40;;
3095;SDS011;1558;42.700;23.360;2023-02-24T13:37:29;16.03;;;13.70;;
3095;SDS011;1558;42.700;23.360;2023-02-24T13:40:00;17.17;;;15.33;;
3095;SDS011;1558;42.700;23.360;2023-02-24T13:42:57;16.57;;;13.97;;
3095;SDS011;1558;42.700;23.360;2023-02-24T13:45:27;17.77;;;15.50;;
3095;SDS011;1558;42.700;23.360;2023-02-24T13:48:11;18.37;;;15.10;;
3095;SDS011;1558;42.700;23.360;2023-02-24T13:51:01;16.30;;;14.30;;
3095;SDS011;1558;42.700;23.360;2023-02-24T13:53:45;16.33;;;14.50;;
3095;SDS011;1558;42.700;23.360;2023-02-24T13:56:30;20.37;;;17.43;;
3095;SDS011;1558;42.700;23.360;2023-02-24T13:59:21;19.47;;;16.60;;
3095;SDS011;1558;42.700;23.360;2023-02-24T14:02:02;17.60;;;15.80;;
3095;SDS011;1558;42.700;23.360;2023-02-24T14:04:43;18.47;;;16.17;;
3095;SDS011;1558;42.700;23.360;2023-02-24T14:07:16;19.17;;;16.37;;
3095;SDS011;1558;42.700;23.360;2023-02-24T14:09:50;19.30;;;17.30;;
3095;SDS011;1558;42.700;23.360;2023-02-24T14:12:22;21.43;;;18.50;;
3095;SDS011;1558;42.700;23.360;2023-02-24T14:14:54;24.13;;;19.47;;
3095;SDS011;1558;42.700;23.360;2023-02-24T14:17:24;20.90;;;16.70;;
3095;SDS011;1558;42.700;23.360;2023-02-24T14:20:06;22.53;;;17.10;;
3095;SDS011;1558;42.700;23.360;2023-02-24T14:22:41;22.67;;;17.10;;
3095;SDS011;1558;42.700;23.360;2023-02-24T14:25:10;24.03;;;18.27;;
3095;SDS011;1558;42.700;23.360;2023-02-24T14:27:42;20.33;;;17.50;;
3095;SDS011;1558;42.700;23.360;2023-02-24T14:30:22;23.00;;;17.67;;
3095;SDS011;1558;42.700;23.360;2023-02-24T14:32:52;24.13;;;19.53;;
3095;SDS011;1558;42.700;23.360;2023-02-24T14:35:22;23.83;;;19.90;;
3095;SDS011;1558;42.700;23.360;2023-02-24T14:37:55;24.33;;;19.90;;
3095;SDS011;1558;42.700;23.360;2023-02-24T14:40:23;25.53;;;21.10;;
3095;SDS011;1558;42.700;23.360;2023-02-24T14:42:53;28.57;;;21.80;;
3095;SDS011;1558;42.700;23.360;2023-02-24T14:45:24;29.03;;;22.70;;
3095;SDS011;1558;42.700;23.360;2023-02-24T14:47:54;27.13;;;23.33;;
3095;SDS011;1558;42.700;23.360;2023-02-24T14:50:23;26.73;;;21.70;;
3095;SDS011;1558;42.700;23.360;2023-02-24T14:52:55;28.30;;;22.50;;
3095;SDS011;1558;42.700;23.360;2023-02-24T14:55:25;27.77;;;23.27;;
3095;SDS011;1558;42.700;23.360;2023-02-24T14:57:57;28.80;;;22.63;;
3095;SDS011;1558;42.700;23.360;2023-02-24T15:00:30;24.37;;;21.33;;
3095;SDS011;1558;42.700;23.360;2023-02-24T15:03:03;26.70;;;21.60;;
3095;SDS011;1558;42.700;23.360;2023-02-24T15:05:38;23.33;;;19.53;;
3095;SDS011;1558;42.700;23.360;2023-02-24T15:08:15;22.60;;;19.90;;
3095;SDS011;1558;42.700;23.360;2023-02-24T15:10:52;24.93;;;20.27;;
3095;SDS011;1558;42.700;23.360;2023-02-24T15:13:22;23.97;;;18.67;;
3095;SDS011;1558;42.700;23.360;2023-02-24T15:16:00;24.33;;;19.43;;
3095;SDS011;1558;42.700;23.360;2023-02-24T15:18:33;24.93;;;19.67;;
3095;SDS011;1558;42.700;23.360;2023-02-24T15:21:02;25.23;;;19.73;;
3095;SDS011;1558;42.700;23.360;2023-02-24T15:23:33;25.57;;;19.20;;
3095;SDS011;1558;42.700;23.360;2023-02-24T15:26:03;24.80;;;19.73;;
3095;SDS011;1558;42.700;23.360;2023-02-24T15:28:34;23.90;;;19.50;;
3095;SDS011;1558;42.700;23.360;2023-02-24T15:31:06;22.70;;;19.63;;
3095;SDS011;1558;42.700;23.360;2023-02-24T15:33:37;24.77;;;19.10;;
3095;SDS011;1558;42.700;23.360;2023-02-24T15:36:10;19.73;;;17.60;;
3095;SDS011;1558;42.700;23.360;2023-02-24T15:38:43;20.13;;;17.73;;
3095;SDS011;1558;42.700;23.360;2023-02-24T15:41:12;26.63;;;18.10;;
3095;SDS011;1558;42.700;23.360;2023-02-24T15:43:44;26.33;;;19.90;;
3095;SDS011;1558;42.700;23.360;2023-02-24T15:46:21;29.90;;;20.43;;